Time;durP1;ratioP1;P1;durP2;ratioP2;P2;SDS_P1;SDS_P2;PMS_P1;PMS_P2;Temp;Humidity;BMP_temperature;BMP_pressure;BME280_temperature;BME280_humidity;BME280_pressure;Samples;Min_cycle;Max_cycle;Signal;HPM_P1;HPM_P2
2023/11/02 00:02:26;;;;;;;1.60;1.10;;;11.70;98.20;;;;;;4970176;28;20496;-78
2023/11/02 00:04:54;;;;;;;1.60;1.10;;;11.70;98.20;;;;;;4979181;28;20481;-79
2023/11/02 00:07:21;;;;;;;1.60;1.10;;;11.70;98.20;;;;;;4974407;28;20547;-80
2023/11/02 00:09:50;;;;;;;1.60;1.10;;;11.70;98.20;;;;;;4977261;28;20740;-78
2023/11/02 00:12:19;;;;;;;1.60;1.10;;;11.80;98.20;;;;;;4972003;28;20523;-79
2023/11/02 00:14:51;;;;;;;1.60;1.10;;;11.70;98.20;;;;;;4977080;28;20473;-79
2023/11/02 00:17:54;;;;;;;1.53;1.00;;;11.80;98.20;;;;;;4971484;28;20489;-78
2023/11/02 00:20:37;;;;;;;1.60;1.10;;;11.80;98.20;;;;;;4975175;28;20465;-79
2023/11/02 00:23:05;;;;;;;1.60;1.10;;;11.80;98.20;;;;;;4980841;28;20510;-79
2023/11/02 00:25:49;;;;;;;1.60;1.10;;;11.90;98.20;;;;;;4976519;28;20566;-78
2023/11/02 00:28:16;;;;;;;1.60;1.10;;;11.90;98.20;;;;;;4965734;28;20492;-79
2023/11/02 00:30:45;;;;;;;1.60;1.20;;;11.90;98.20;;;;;;4976160;28;20465;-80
2023/11/02 00:33:13;;;;;;;1.57;1.00;;;12.00;98.20;;;;;;4967331;28;20491;-80
2023/11/02 00:35:45;;;;;;;1.50;1.10;;;12.00;98.20;;;;;;4971716;28;20501;-80
2023/11/02 00:38:17;;;;;;;1.60;1.10;;;12.00;98.20;;;;;;4967786;28;20488;-80
2023/11/02 00:40:44;;;;;;;1.53;1.07;;;12.00;98.20;;;;;;4977793;28;20493;-81
2023/11/02 00:43:11;;;;;;;1.60;1.10;;;12.00;98.20;;;;;;4971511;28;20490;-79
2023/11/02 00:45:41;;;;;;;1.57;1.10;;;12.00;98.20;;;;;;4963715;28;20474;-80
2023/11/02 00:48:15;;;;;;;1.60;1.20;;;12.10;98.20;;;;;;4979802;28;20514;-79
2023/11/02 00:51:12;;;;;;;1.53;1.10;;;12.10;98.20;;;;;;4965326;28;20964;-80
2023/11/02 00:53:43;;;;;;;1.60;1.20;;;12.10;98.20;;;;;;4950673;28;20499;-79
2023/11/02 00:56:10;;;;;;;1.60;1.30;;;12.20;98.20;;;;;;4966838;28;20504;-78
2023/11/02 00:58:46;;;;;;;1.60;1.03;;;12.20;98.20;;;;;;4986658;28;20467;-79
2023/11/02 01:01:14;;;;;;;1.60;1.20;;;12.20;98.20;;;;;;4958290;28;20480;-80
2023/11/02 01:03:46;;;;;;;1.60;1.10;;;12.20;98.20;;;;;;4979139;28;20477;-79
2023/11/02 01:06:17;;;;;;;1.53;1.10;;;12.30;98.20;;;;;;4959455;28;20539;-83
2023/11/02 01:08:44;;;;;;;1.60;1.10;;;12.20;98.20;;;;;;4972292;28;20471;-81
2023/11/02 01:11:11;;;;;;;1.57;1.00;;;12.20;98.20;;;;;;4964218;28;20742;-81
2023/11/02 01:13:38;;;;;;;1.57;1.00;;;12.20;98.20;;;;;;4976353;28;20576;-80
2023/11/02 01:16:07;;;;;;;4.13;1.97;;;12.20;98.20;;;;;;4969643;28;20492;-80
2023/11/02 01:18:34;;;;;;;1.60;1.03;;;12.20;98.20;;;;;;4981923;28;20474;-80
2023/11/02 01:21:03;;;;;;;1.60;1.13;;;12.20;98.20;;;;;;4969326;28;20985;-80
2023/11/02 01:23:32;;;;;;;1.60;1.10;;;12.20;98.20;;;;;;4988533;28;20462;-81
2023/11/02 01:26:00;;;;;;;1.60;1.10;;;12.30;98.20;;;;;;4961977;28;20490;-79
2023/11/02 01:28:49;;;;;;;1.50;1.00;;;12.30;98.20;;;;;;4982140;28;20850;-78
2023/11/02 01:31:19;;;;;;;1.60;1.10;;;12.30;98.20;;;;;;4964859;28;20480;-78
2023/11/02 01:34:02;;;;;;;1.60;1.00;;;12.30;98.20;;;;;;4982428;28;20465;-77
2023/11/02 01:36:36;;;;;;;1.60;1.20;;;12.40;98.20;;;;;;4960713;28;21139;-77
2023/11/02 01:39:24;;;;;;;1.60;1.10;;;12.40;98.20;;;;;;4974796;28;20470;-78
2023/11/02 01:42:05;;;;;;;1.57;1.10;;;12.40;98.20;;;;;;4966158;28;20487;-79
2023/11/02 01:44:41;;;;;;;1.53;1.10;;;12.30;98.20;;;;;;4976564;28;20468;-77
2023/11/02 01:47:18;;;;;;;1.60;1.10;;;12.30;98.20;;;;;;4967042;28;20485;-77
2023/11/02 01:49:51;;;;;;;1.57;1.10;;;12.30;98.20;;;;;;4970463;28;21216;-78
2023/11/02 01:52:32;;;;;;;1.57;1.10;;;12.30;98.20;;;;;;4974201;28;20484;-79
2023/11/02 01:55:07;;;;;;;1.53;1.07;;;12.30;98.20;;;;;;4973814;28;20605;-78
2023/11/02 01:57:43;;;;;;;1.57;1.10;;;12.30;98.20;;;;;;4977142;28;22137;-78
2023/11/02 02:00:16;;;;;;;1.57;1.10;;;12.30;98.20;;;;;;4968581;28;20858;-78
2023/11/02 02:02:52;;;;;;;1.60;1.10;;;12.30;98.20;;;;;;4967752;28;20486;-79
2023/11/02 02:05:27;;;;;;;1.60;1.07;;;12.30;98.20;;;;;;4970555;28;20468;-79
2023/11/02 02:08:03;;;;;;;1.50;1.00;;;12.30;98.20;;;;;;4973694;28;20868;-78
2023/11/02 02:10:46;;;;;;;1.53;1.00;;;12.30;98.20;;;;;;4966326;28;20909;-78
2023/11/02 02:13:27;;;;;;;1.57;1.03;;;12.30;98.20;;;;;;4948617;28;20481;-78
2023/11/02 02:16:07;;;;;;;1.53;1.00;;;12.30;98.20;;;;;;4953532;28;20966;-79
2023/11/02 02:18:36;;;;;;;1.57;1.10;;;12.30;98.20;;;;;;4972109;28;20919;-78
2023/11/02 02:21:09;;;;;;;1.60;1.10;;;12.30;98.20;;;;;;4966529;28;20517;-79
2023/11/02 02:23:43;;;;;;;1.57;1.00;;;12.30;98.20;;;;;;4976015;28;20474;-78
2023/11/02 02:26:33;;;;;;;1.57;1.00;;;12.30;98.20;;;;;;4964857;28;20493;-78
2023/11/02 02:29:39;;;;;;;1.53;1.10;;;12.30;98.20;;;;;;4964761;28;20473;-78
2023/11/02 02:32:47;;;;;;;1.60;1.20;;;12.30;98.20;;;;;;4966940;28;21018;-79
2023/11/02 02:35:18;;;;;;;1.60;1.10;;;12.20;98.20;;;;;;4970395;28;20456;-78
2023/11/02 02:37:50;;;;;;;1.53;1.10;;;12.20;98.20;;;;;;4968293;28;20489;-79
2023/11/02 02:40:22;;;;;;;1.57;1.10;;;12.20;98.20;;;;;;4967890;28;20474;-79
2023/11/02 02:42:51;;;;;;;1.57;1.00;;;12.20;98.20;;;;;;4971143;28;20477;-79
2023/11/02 02:45:18;;;;;;;1.53;1.00;;;12.20;98.20;;;;;;4970476;28;20800;-79
2023/11/02 02:47:47;;;;;;;1.60;1.00;;;12.20;98.20;;;;;;4973735;28;20523;-79
2023/11/02 02:50:18;;;;;;;1.57;1.10;;;12.20;98.20;;;;;;4970939;28;21018;-78
2023/11/02 02:52:48;;;;;;;1.60;1.00;;;12.20;98.20;;;;;;4975894;28;20489;-78
2023/11/02 02:55:18;;;;;;;1.57;1.03;;;12.20;98.20;;;;;;4968947;28;20462;-78
2023/11/02 02:57:49;;;;;;;1.60;1.10;;;12.20;98.20;;;;;;4976276;28;20503;-78
2023/11/02 03:00:17;;;;;;;2.33;2.13;;;12.20;98.20;;;;;;4967169;28;20477;-79
2023/11/02 03:02:46;;;;;;;1.60;1.10;;;12.20;98.20;;;;;;4974813;28;20591;-78
2023/11/02 03:05:16;;;;;;;1.60;1.10;;;12.20;98.20;;;;;;4966303;28;20844;-79
2023/11/02 03:07:45;;;;;;;1.57;1.10;;;12.20;98.20;;;;;;4974606;28;20477;-79
2023/11/02 03:10:15;;;;;;;1.57;1.03;;;12.20;98.20;;;;;;4968939;28;20465;-79
2023/11/02 03:12:43;;;;;;;1.60;1.10;;;12.20;98.20;;;;;;4977721;28;20484;-78
2023/11/02 03:15:13;;;;;;;1.50;1.00;;;12.20;98.20;;;;;;4972535;28;20823;-78
2023/11/02 03:18:02;;;;;;;1.60;1.10;;;12.20;98.20;;;;;;4974788;28;20496;-78
2023/11/02 03:20:31;;;;;;;1.53;1.10;;;12.20;98.20;;;;;;4970509;28;20473;-78
2023/11/02 03:23:02;;;;;;;1.57;1.10;;;12.20;98.20;;;;;;4978623;28;20477;-77
2023/11/02 03:25:40;;;;;;;1.53;1.10;;;12.20;98.20;;;;;;4969502;28;20462;-78
2023/11/02 03:28:21;;;;;;;1.57;1.00;;;12.30;98.20;;;;;;4978140;28;20489;-78
2023/11/02 03:30:54;;;;;;;1.57;1.10;;;12.30;98.20;;;;;;4963154;28;20546;-78
2023/11/02 03:33:34;;;;;;;1.57;1.10;;;12.30;98.20;;;;;;4984510;28;21306;-78
2023/11/02 03:36:09;;;;;;;1.57;1.10;;;12.30;98.20;;;;;;4960543;28;20846;-79
2023/11/02 03:38:53;;;;;;;1.57;1.07;;;12.30;98.20;;;;;;4983383;28;20488;-79
2023/11/02 03:41:27;;;;;;;1.50;1.00;;;12.30;98.20;;;;;;4965042;28;21012;-79
2023/11/02 03:44:03;;;;;;;1.60;1.10;;;12.40;98.20;;;;;;4978821;28;20609;-79
2023/11/02 03:46:42;;;;;;;1.60;1.10;;;12.40;98.20;;;;;;4964617;28;20504;-79
2023/11/02 03:49:22;;;;;;;1.57;1.00;;;12.40;98.20;;;;;;4980585;28;20461;-78
2023/11/02 03:51:58;;;;;;;1.60;1.10;;;12.40;98.20;;;;;;4969360;28;20864;-78
2023/11/02 03:55:01;;;;;;;1.53;1.00;;;12.40;98.20;;;;;;4975979;28;20465;-77
2023/11/02 03:57:32;;;;;;;1.53;1.10;;;12.40;98.20;;;;;;4964931;28;20484;-79
2023/11/02 04:00:09;;;;;;;1.60;1.10;;;12.50;98.20;;;;;;4968797;28;20576;-79
2023/11/02 04:02:44;;;;;;;1.50;1.00;;;12.50;98.20;;;;;;4975422;28;20854;-78
2023/11/02 04:05:14;;;;;;;1.57;1.10;;;12.50;98.20;;;;;;4973641;28;20461;-79
2023/11/02 04:07:54;;;;;;;1.57;1.10;;;12.50;98.20;;;;;;4977652;28;20485;-79
2023/11/02 04:10:24;;;;;;;1.60;1.10;;;12.50;98.20;;;;;;4972658;28;20944;-79
2023/11/02 04:13:05;;;;;;;1.60;1.10;;;12.60;98.20;;;;;;4981218;28;20476;-78
2023/11/02 04:15:32;;;;;;;1.57;1.00;;;12.60;98.20;;;;;;4969951;28;20827;-78
2023/11/02 04:17:59;;;;;;;1.93;1.27;;;12.60;98.20;;;;;;4979236;28;20476;-78
2023/11/02 04:20:26;;;;;;;1.50;1.00;;;12.60;98.20;;;;;;4971481;28;20481;-79
2023/11/02 04:22:54;;;;;;;1.57;1.10;;;12.60;98.20;;;;;;4981877;28;20488;-78
2023/11/02 04:25:21;;;;;;;1.60;1.10;;;12.50;98.20;;;;;;4975893;28;20509;-79
2023/11/02 04:27:50;;;;;;;1.57;1.00;;;12.50;98.20;;;;;;4976870;28;20922;-79
2023/11/02 04:30:16;;;;;;;1.50;1.00;;;12.50;98.20;;;;;;4973168;28;20837;-79
2023/11/02 04:32:43;;;;;;;1.50;1.00;;;12.50;98.20;;;;;;4979457;28;20864;-80
2023/11/02 04:35:11;;;;;;;1.53;1.07;;;12.40;98.20;;;;;;4972389;28;20472;-79
2023/11/02 04:37:38;;;;;;;1.73;1.47;;;12.40;98.20;;;;;;4975961;28;20477;-79
2023/11/02 04:40:08;;;;;;;1.60;1.10;;;12.40;98.20;;;;;;4967839;28;20467;-78
2023/11/02 04:42:35;;;;;;;1.53;1.10;;;12.30;98.20;;;;;;4976089;28;20489;-78
2023/11/02 04:45:03;;;;;;;1.57;1.10;;;12.30;98.20;;;;;;4974378;28;20466;-78
2023/11/02 04:47:30;;;;;;;1.60;1.10;;;12.30;98.20;;;;;;4976689;28;20475;-77
2023/11/02 04:49:58;;;;;;;1.53;1.10;;;12.30;98.20;;;;;;4975401;28;20944;-77
2023/11/02 04:52:36;;;;;;;1.53;1.00;;;12.30;98.20;;;;;;4985374;23;20472;-78
2023/11/02 04:55:03;;;;;;;1.53;1.03;;;12.30;98.20;;;;;;4992037;28;20543;-78
2023/11/02 04:57:33;;;;;;;1.70;1.50;;;12.30;98.20;;;;;;4995997;28;20487;-79
2023/11/02 05:00:02;;;;;;;1.53;1.00;;;12.30;98.20;;;;;;4993484;28;20496;-78
2023/11/02 05:02:28;;;;;;;1.57;1.10;;;12.30;98.20;;;;;;4985190;28;20787;-78
2023/11/02 05:04:55;;;;;;;1.57;1.00;;;12.40;98.20;;;;;;4986121;28;21542;-79
2023/11/02 05:07:22;;;;;;;1.57;1.00;;;12.40;98.20;;;;;;4983567;28;20481;-79
2023/11/02 05:09:52;;;;;;;1.60;1.10;;;12.40;98.20;;;;;;4989687;28;20759;-78
2023/11/02 05:12:19;;;;;;;1.53;1.00;;;12.40;98.20;;;;;;4984840;28;20486;-79
2023/11/02 05:14:47;;;;;;;1.57;1.10;;;12.40;98.20;;;;;;4985218;28;20466;-78
2023/11/02 05:17:15;;;;;;;1.53;1.10;;;12.40;98.20;;;;;;4985617;28;20506;-78
2023/11/02 05:19:42;;;;;;;1.60;1.10;;;12.40;98.20;;;;;;4982871;28;20599;-79
2023/11/02 05:22:18;;;;;;;1.53;1.10;;;12.40;98.20;;;;;;4984614;28;20574;-78
2023/11/02 05:24:45;;;;;;;1.50;1.00;;;12.50;98.20;;;;;;4979182;28;20458;-79
2023/11/02 05:27:12;;;;;;;1.53;1.00;;;12.50;98.20;;;;;;4988625;28;20583;-79
2023/11/02 05:32:19;;;;;;;1.60;1.00;;;12.50;98.20;;;;;;4973785;28;20731;-80
2023/11/02 05:34:46;;;;;;;1.57;1.03;;;12.50;98.20;;;;;;4977018;28;20461;-81
2023/11/02 05:37:12;;;;;;;1.57;1.10;;;12.50;98.20;;;;;;4961693;28;20490;-81
2023/11/02 05:39:39;;;;;;;1.60;1.00;;;12.50;98.20;;;;;;4979344;28;20470;-82
2023/11/02 05:42:10;;;;;;;1.60;1.10;;;12.60;98.20;;;;;;4978543;28;20489;-83
2023/11/02 05:44:37;;;;;;;1.53;1.00;;;12.60;98.20;;;;;;4974991;28;20490;-81
2023/11/02 05:47:04;;;;;;;1.57;1.00;;;12.60;98.20;;;;;;4969399;28;20485;-80
2023/11/02 05:49:32;;;;;;;1.53;1.00;;;12.60;98.20;;;;;;4973121;28;20473;-80
2023/11/02 05:52:00;;;;;;;1.53;1.00;;;12.60;98.20;;;;;;4980303;28;21006;-80
2023/11/02 05:54:30;;;;;;;1.57;1.07;;;12.60;98.20;;;;;;4983056;28;20474;-82
2023/11/02 05:57:17;;;;;;;1.53;1.10;;;12.60;98.20;;;;;;4975844;28;20492;-81
2023/11/02 05:59:58;;;;;;;1.50;1.00;;;12.60;98.20;;;;;;4982452;28;20517;-83
2023/11/02 06:02:32;;;;;;;1.53;1.00;;;12.60;98.20;;;;;;4960181;28;20477;-82
2023/11/02 06:05:00;;;;;;;1.50;0.90;;;12.60;98.20;;;;;;4972965;28;20473;-82
2023/11/02 06:07:27;;;;;;;1.50;1.00;;;12.70;98.20;;;;;;4986419;28;20488;-81
2023/11/02 06:09:54;;;;;;;1.60;1.10;;;12.70;98.20;;;;;;4979367;28;20478;-82
2023/11/02 06:12:23;;;;;;;1.57;1.10;;;12.70;98.20;;;;;;4960007;28;21603;-81
2023/11/02 06:14:50;;;;;;;1.53;1.10;;;12.70;98.20;;;;;;4968406;28;20476;-81
2023/11/02 06:17:17;;;;;;;1.53;1.00;;;12.70;98.20;;;;;;4955163;28;20479;-81
2023/11/02 06:19:44;;;;;;;1.60;1.10;;;12.70;98.20;;;;;;4970604;28;20541;-81
2023/11/02 06:22:13;;;;;;;1.53;1.00;;;12.80;98.20;;;;;;4958782;28;20478;-81
2023/11/02 06:24:41;;;;;;;1.53;1.10;;;12.80;98.20;;;;;;4968961;28;20470;-79
2023/11/02 06:27:08;;;;;;;1.53;1.00;;;12.80;98.20;;;;;;4978918;28;20559;-80
2023/11/02 06:29:36;;;;;;;1.60;1.07;;;12.80;98.20;;;;;;4978712;28;20461;-80
2023/11/02 06:32:04;;;;;;;1.50;1.10;;;12.70;98.20;;;;;;4957252;28;20518;-81
2023/11/02 06:34:36;;;;;;;1.53;1.00;;;12.70;98.20;;;;;;4971397;28;20469;-81
2023/11/02 06:37:08;;;;;;;1.57;1.00;;;12.70;98.20;;;;;;4958527;28;20475;-81
2023/11/02 06:39:39;;;;;;;1.60;1.20;;;12.70;98.20;;;;;;4967316;28;20593;-82
2023/11/02 06:42:06;;;;;;;1.53;1.00;;;12.70;98.20;;;;;;4956450;28;20545;-81
2023/11/02 06:44:32;;;;;;;1.60;1.17;;;12.70;98.20;;;;;;4968590;28;20470;-80
2023/11/02 06:47:02;;;;;;;1.57;1.10;;;12.70;98.20;;;;;;4975829;28;20583;-81
2023/11/02 06:49:37;;;;;;;1.50;1.00;;;12.70;98.20;;;;;;4984196;28;20533;-80
2023/11/02 06:52:11;;;;;;;1.60;1.10;;;12.70;98.20;;;;;;4968035;28;20785;-83
2023/11/02 06:54:46;;;;;;;1.60;1.10;;;12.70;98.20;;;;;;4975786;28;20466;-83
2023/11/02 06:57:13;;;;;;;1.53;1.00;;;12.70;98.20;;;;;;4972572;28;20480;-82
2023/11/02 06:59:46;;;;;;;1.57;1.10;;;12.70;98.20;;;;;;4973780;28;20553;-80
2023/11/02 07:02:13;;;;;;;1.60;1.10;;;12.70;98.20;;;;;;4977321;28;20468;-81
2023/11/02 07:04:40;;;;;;;1.53;1.00;;;12.70;98.20;;;;;;4977950;28;20466;-82
2023/11/02 07:07:08;;;;;;;1.60;1.10;;;12.60;98.20;;;;;;4973969;28;20874;-82
2023/11/02 07:09:34;;;;;;;1.60;1.23;;;12.60;98.20;;;;;;4975901;28;20461;-81
2023/11/02 07:12:03;;;;;;;1.60;1.10;;;12.70;98.20;;;;;;4969829;28;20493;-83
2023/11/02 07:14:30;;;;;;;1.57;1.00;;;12.70;98.20;;;;;;4971844;28;20545;-82
2023/11/02 07:16:56;;;;;;;1.57;1.00;;;12.70;98.20;;;;;;4969150;28;20486;-82
2023/11/02 07:19:23;;;;;;;1.50;1.00;;;12.70;98.20;;;;;;4975023;28;20581;-82
2023/11/02 07:21:54;;;;;;;1.50;1.00;;;12.80;98.20;;;;;;4966938;28;20480;-82
2023/11/02 07:24:21;;;;;;;1.53;1.00;;;12.80;98.20;;;;;;4974860;28;20833;-81
2023/11/02 07:26:48;;;;;;;1.53;1.00;;;12.80;98.20;;;;;;4966318;28;20933;-83
2023/11/02 07:29:16;;;;;;;1.60;1.10;;;12.80;98.20;;;;;;4974952;28;20454;-80
2023/11/02 07:31:43;;;;;;;1.53;1.00;;;12.80;98.20;;;;;;4963712;28;20485;-81
2023/11/02 07:34:10;;;;;;;1.57;1.00;;;12.80;98.20;;;;;;4974671;28;20512;-80
2023/11/02 07:36:37;;;;;;;1.57;1.03;;;12.80;98.20;;;;;;4963681;28;20507;-81
2023/11/02 07:39:04;;;;;;;1.50;1.00;;;12.80;98.20;;;;;;4979995;28;20505;-80
2023/11/02 07:41:31;;;;;;;1.60;1.10;;;12.80;98.20;;;;;;4969849;28;20491;-83
2023/11/02 07:43:57;;;;;;;1.57;1.07;;;12.80;98.20;;;;;;4990126;28;20458;-81
2023/11/02 07:46:25;;;;;;;1.57;1.00;;;12.80;98.20;;;;;;4964109;28;20722;-81
2023/11/02 07:48:53;;;;;;;1.50;1.00;;;12.70;98.20;;;;;;4977648;28;20715;-80
2023/11/02 07:51:20;;;;;;;1.53;1.00;;;12.70;98.20;;;;;;4964971;28;20472;-82
2023/11/02 07:53:47;;;;;;;1.53;1.10;;;12.70;98.20;;;;;;4981085;28;20856;-80
2023/11/02 07:56:14;;;;;;;1.50;1.00;;;12.60;98.20;;;;;;4967818;28;20992;-81
2023/11/02 07:58:42;;;;;;;1.60;1.10;;;12.60;98.20;;;;;;4981240;28;20512;-81
2023/11/02 08:01:12;;;;;;;1.53;1.10;;;12.60;98.20;;;;;;4965275;28;20873;-82
2023/11/02 08:03:41;;;;;;;1.57;1.00;;;12.60;98.20;;;;;;4986764;28;20484;-81
2023/11/02 08:06:09;;;;;;;1.60;1.10;;;12.60;98.20;;;;;;4967900;28;20903;-80
2023/11/02 08:08:36;;;;;;;1.60;1.00;;;12.60;98.20;;;;;;4982304;28;20458;-80
2023/11/02 08:11:03;;;;;;;1.70;1.53;;;12.60;98.20;;;;;;4965231;28;20508;-82
2023/11/02 08:13:31;;;;;;;1.57;1.00;;;12.60;98.20;;;;;;4982709;28;20559;-80
2023/11/02 08:15:58;;;;;;;1.57;1.00;;;12.70;98.20;;;;;;4962274;28;20492;-81
2023/11/02 08:18:25;;;;;;;1.57;1.03;;;12.70;98.20;;;;;;4961777;28;20485;-81
2023/11/02 08:20:53;;;;;;;1.53;1.00;;;12.70;98.20;;;;;;4963367;28;21067;-81
2023/11/02 08:23:20;;;;;;;1.60;1.10;;;12.80;98.20;;;;;;4985743;28;20482;-80
2023/11/02 08:25:48;;;;;;;1.57;0.97;;;12.80;98.20;;;;;;4962662;28;20474;-81
2023/11/02 08:28:16;;;;;;;1.57;1.00;;;12.90;98.20;;;;;;4988873;28;20512;-81
2023/11/02 08:30:44;;;;;;;1.50;1.00;;;12.90;98.20;;;;;;4970044;28;20596;-81
2023/11/02 08:33:13;;;;;;;1.60;1.10;;;12.90;98.20;;;;;;4979679;28;20490;-82
2023/11/02 08:35:40;;;;;;;1.50;1.00;;;12.90;98.20;;;;;;4972627;28;20461;-82
2023/11/02 08:38:09;;;;;;;1.60;1.10;;;12.90;98.20;;;;;;4975422;28;20557;-81
2023/11/02 08:40:36;;;;;;;1.60;1.10;;;12.90;98.20;;;;;;4970573;28;20488;-81
2023/11/02 08:43:03;;;;;;;1.60;1.00;;;12.90;98.20;;;;;;4956520;28;20573;-80
2023/11/02 08:45:30;;;;;;;1.53;1.00;;;12.90;98.20;;;;;;4972088;28;20482;-82
2023/11/02 08:47:57;;;;;;;1.53;1.00;;;12.90;98.20;;;;;;4973506;28;20480;-80
2023/11/02 08:50:25;;;;;;;4.43;4.13;;;12.90;98.20;;;;;;4973693;28;20558;-82
2023/11/02 08:52:54;;;;;;;1.53;1.00;;;13.00;98.20;;;;;;4976984;28;20539;-80
2023/11/02 08:55:22;;;;;;;1.60;1.00;;;13.00;98.20;;;;;;4971101;28;20488;-79
2023/11/02 08:57:48;;;;;;;1.60;1.00;;;13.00;98.20;;;;;;4977205;28;20476;-80
2023/11/02 09:00:16;;;;;;;1.60;1.00;;;13.00;98.20;;;;;;4972074;28;20486;-80
2023/11/02 09:02:43;;;;;;;1.53;1.00;;;13.10;98.20;;;;;;4976101;28;20511;-79
2023/11/02 09:05:10;;;;;;;1.57;1.00;;;13.10;98.20;;;;;;4973935;28;20459;-81
2023/11/02 09:07:37;;;;;;;1.60;1.07;;;13.20;98.20;;;;;;4969058;28;21081;-80
2023/11/02 09:10:05;;;;;;;1.53;1.00;;;13.30;98.20;;;;;;4971948;28;20477;-80
2023/11/02 09:12:33;;;;;;;1.50;1.00;;;13.30;98.20;;;;;;4973456;28;20508;-80
2023/11/02 09:15:00;;;;;;;1.60;1.00;;;13.40;98.20;;;;;;4972746;28;20458;-81
2023/11/02 09:17:26;;;;;;;1.53;1.00;;;13.40;98.20;;;;;;4965521;28;21064;-80
2023/11/02 09:19:53;;;;;;;1.60;1.10;;;13.50;98.20;;;;;;4972053;28;20492;-81
2023/11/02 09:22:20;;;;;;;1.50;0.90;;;13.50;98.20;;;;;;4955160;28;20520;-80
2023/11/02 09:24:47;;;;;;;1.50;1.00;;;13.60;98.20;;;;;;4970255;28;20549;-81
2023/11/02 09:27:14;;;;;;;1.57;1.00;;;13.70;98.20;;;;;;4954535;28;20704;-80
2023/11/02 09:29:42;;;;;;;1.53;0.97;;;13.80;98.20;;;;;;4968606;28;20561;-81
2023/11/02 09:32:09;;;;;;;1.60;1.00;;;13.80;98.20;;;;;;4957556;28;20510;-79
2023/11/02 09:34:38;;;;;;;1.53;1.00;;;13.90;98.20;;;;;;4967236;28;20494;-81
2023/11/02 09:37:05;;;;;;;1.60;1.00;;;13.90;98.20;;;;;;4967895;28;20700;-81
2023/11/02 09:39:32;;;;;;;1.53;1.00;;;14.00;98.20;;;;;;4975746;28;20521;-78
2023/11/02 09:42:00;;;;;;;1.57;1.00;;;14.00;98.20;;;;;;4978863;28;20572;-81
2023/11/02 09:44:27;;;;;;;1.70;1.50;;;14.00;98.20;;;;;;4981904;28;20837;-80
2023/11/02 09:46:56;;;;;;;1.57;1.00;;;14.00;98.20;;;;;;4971061;28;20492;-79
2023/11/02 09:49:23;;;;;;;1.60;1.10;;;14.00;98.20;;;;;;4982399;28;20465;-79
2023/11/02 09:51:50;;;;;;;1.60;1.00;;;14.10;98.20;;;;;;4953929;28;20576;-79
2023/11/02 09:54:17;;;;;;;1.97;1.77;;;14.10;98.20;;;;;;4966236;28;20988;-79
2023/11/02 09:56:44;;;;;;;1.57;1.00;;;14.10;98.20;;;;;;4968314;28;20485;-80
2023/11/02 09:59:12;;;;;;;1.53;1.00;;;14.20;98.20;;;;;;4977429;28;20486;-81
2023/11/02 10:01:39;;;;;;;1.57;1.00;;;14.40;98.20;;;;;;4956947;28;20514;-79
2023/11/02 10:04:09;;;;;;;1.60;1.10;;;14.50;98.20;;;;;;4966216;28;20532;-80
2023/11/02 10:06:36;;;;;;;1.60;1.00;;;14.60;98.20;;;;;;4967765;28;20480;-79
2023/11/02 10:09:03;;;;;;;1.57;1.00;;;14.70;98.20;;;;;;4981570;28;20466;-81
2023/11/02 10:11:31;;;;;;;1.60;1.00;;;14.70;98.20;;;;;;4965251;28;21053;-79
2023/11/02 10:13:58;;;;;;;1.60;1.00;;;14.80;98.20;;;;;;4976193;28;20500;-81
2023/11/02 10:16:25;;;;;;;1.60;1.00;;;14.80;98.20;;;;;;4965489;28;20568;-79
2023/11/02 10:18:53;;;;;;;1.53;1.00;;;14.90;98.20;;;;;;4980709;28;20575;-80
2023/11/02 10:21:21;;;;;;;1.60;1.00;;;15.00;98.20;;;;;;4965213;28;20484;-80
2023/11/02 10:23:50;;;;;;;1.60;1.00;;;15.10;98.20;;;;;;4979963;28;20849;-78
2023/11/02 10:26:17;;;;;;;1.60;1.00;;;15.10;98.20;;;;;;4961794;28;20986;-78
2023/11/02 10:28:44;;;;;;;1.50;1.00;;;15.10;98.20;;;;;;4978748;28;20534;-79
2023/11/02 10:31:11;;;;;;;1.60;1.00;;;15.20;98.20;;;;;;4965448;28;22075;-79
2023/11/02 10:33:39;;;;;;;1.60;1.00;;;15.30;98.20;;;;;;4993786;28;20470;-80
2023/11/02 10:36:07;;;;;;;1.60;1.03;;;15.30;98.20;;;;;;4963971;28;20489;-81
2023/11/02 10:38:35;;;;;;;1.50;0.90;;;15.40;98.20;;;;;;4981024;28;20469;-80
2023/11/02 10:41:02;;;;;;;1.57;1.00;;;15.40;98.20;;;;;;4962272;28;20938;-79
2023/11/02 10:43:31;;;;;;;1.53;1.00;;;15.50;98.20;;;;;;4979698;28;20514;-79
2023/11/02 10:45:59;;;;;;;1.57;1.00;;;15.50;98.20;;;;;;4958430;28;20478;-79
2023/11/02 10:48:27;;;;;;;1.53;1.00;;;15.50;98.20;;;;;;4980242;28;20473;-80
2023/11/02 10:50:57;;;;;;;1.60;1.10;;;15.50;98.20;;;;;;4958858;28;20504;-81
2023/11/02 10:53:34;;;;;;;1.60;1.00;;;15.60;98.20;;;;;;4966130;28;20557;-79
2023/11/02 10:56:12;;;;;;;1.57;1.00;;;15.60;98.20;;;;;;4960582;28;20470;-80
2023/11/02 10:58:41;;;;;;;1.57;0.97;;;15.70;98.20;;;;;;4982751;28;20481;-79
2023/11/02 11:01:10;;;;;;;1.60;1.00;;;15.80;98.20;;;;;;4963312;28;20712;-80
2023/11/02 11:03:38;;;;;;;1.57;1.00;;;15.80;98.20;;;;;;4993363;28;20453;-79
2023/11/02 11:06:07;;;;;;;1.50;1.00;;;15.90;98.20;;;;;;4961120;28;20814;-80
2023/11/02 11:08:35;;;;;;;1.60;1.00;;;15.90;98.20;;;;;;4977945;28;20945;-79
2023/11/02 11:11:04;;;;;;;1.50;0.90;;;15.80;98.20;;;;;;4961690;28;20536;-80
2023/11/02 11:13:33;;;;;;;1.57;1.00;;;15.80;98.20;;;;;;4995109;28;20469;-79
2023/11/02 11:16:00;;;;;;;1.57;1.00;;;15.80;98.20;;;;;;4956089;28;20830;-80
2023/11/02 11:18:28;;;;;;;1.50;1.00;;;15.90;98.20;;;;;;4988728;28;20470;-78
2023/11/02 11:20:55;;;;;;;1.60;1.00;;;15.80;98.20;;;;;;4954282;28;20505;-79
2023/11/02 11:23:22;;;;;;;1.50;1.00;;;15.70;98.20;;;;;;4975416;28;20474;-81
2023/11/02 11:25:59;;;;;;;1.60;1.00;;;15.70;98.20;;;;;;4955913;28;20476;-79
2023/11/02 11:28:32;;;;;;;1.53;1.00;;;15.70;98.20;;;;;;4976287;28;20784;-81
2023/11/02 11:31:00;;;;;;;1.57;1.00;;;15.80;98.20;;;;;;4962232;28;20597;-80
2023/11/02 11:33:49;;;;;;;1.50;0.90;;;15.90;98.20;;;;;;4993551;28;21019;-80
2023/11/02 11:36:21;;;;;;;1.53;0.90;;;16.00;98.20;;;;;;4963985;28;20480;-79
2023/11/02 11:38:48;;;;;;;1.60;1.00;;;16.20;98.20;;;;;;4987383;28;20780;-77
2023/11/02 11:41:43;;;;;;;1.57;1.00;;;16.20;96.80;;;;;;4961513;28;20567;-80
2023/11/02 11:44:19;;;;;;;1.57;1.00;;;16.20;96.50;;;;;;4972915;28;20466;-78
2023/11/02 11:46:50;;;;;;;1.57;0.93;;;16.20;96.30;;;;;;4974045;28;20479;-78
2023/11/02 11:49:48;;;;;;;1.57;0.97;;;16.20;96.60;;;;;;4985717;28;20466;-78
2023/11/02 11:52:36;;;;;;;1.60;1.00;;;16.30;96.30;;;;;;4966834;28;20488;-78
2023/11/02 11:55:34;;;;;;;3.20;2.90;;;16.40;96.10;;;;;;4962481;28;20911;-79
2023/11/02 11:58:02;;;;;;;1.60;1.00;;;16.40;95.80;;;;;;4972179;28;20486;-77
2023/11/02 12:03:44;;;;;;;1.50;0.90;;;16.50;94.10;;;;;;4946040;28;20543;-78
2023/11/02 12:06:12;;;;;;;1.57;0.90;;;16.60;94.60;;;;;;4964204;28;20999;-79
2023/11/02 12:08:44;;;;;;;1.53;0.97;;;16.70;93.00;;;;;;4991008;28;20557;-78
2023/11/02 12:11:13;;;;;;;1.57;1.00;;;16.60;93.10;;;;;;4960540;28;20547;-77
2023/11/02 12:13:49;;;;;;;1.50;0.90;;;16.70;93.70;;;;;;4977281;28;20474;-77
2023/11/02 12:16:18;;;;;;;1.60;1.10;;;16.70;93.10;;;;;;4964457;28;20479;-79
2023/11/02 12:18:46;;;;;;;1.50;1.00;;;16.80;93.90;;;;;;4978414;28;20464;-78
2023/11/02 12:21:17;;;;;;;1.53;1.00;;;16.80;92.80;;;;;;4963260;28;20531;-79
2023/11/02 12:23:45;;;;;;;1.53;0.93;;;16.80;92.70;;;;;;4978676;28;20513;-78
2023/11/02 12:26:13;;;;;;;1.50;1.00;;;16.80;91.90;;;;;;4963941;28;20476;-77
2023/11/02 12:28:43;;;;;;;3.83;3.57;;;16.80;91.90;;;;;;4979336;28;20484;-80
2023/11/02 12:31:10;;;;;;;1.57;1.00;;;16.80;92.50;;;;;;4960658;28;20619;-79
2023/11/02 12:33:39;;;;;;;1.50;1.00;;;16.80;92.00;;;;;;4974244;28;20573;-80
2023/11/02 12:36:07;;;;;;;1.60;1.00;;;16.80;91.80;;;;;;4960440;28;20852;-80
2023/11/02 12:38:37;;;;;;;1.57;0.90;;;16.90;91.40;;;;;;4962015;28;20466;-80
2023/11/02 12:41:05;;;;;;;1.50;0.90;;;17.00;91.10;;;;;;4956394;28;20593;-78
2023/11/02 12:43:36;;;;;;;1.60;1.00;;;17.00;91.40;;;;;;4967960;28;20541;-79
2023/11/02 12:46:06;;;;;;;1.57;0.90;;;17.10;91.10;;;;;;4960157;28;20541;-78
2023/11/02 12:48:36;;;;;;;1.50;0.90;;;17.20;89.60;;;;;;4992727;28;20466;-82
2023/11/02 12:51:18;;;;;;;1.60;1.00;;;17.10;88.80;;;;;;4960449;28;20486;-78
2023/11/02 12:53:47;;;;;;;1.53;1.00;;;17.00;88.90;;;;;;4980164;28;20516;-79
2023/11/02 12:56:22;;;;;;;1.60;1.00;;;17.00;89.30;;;;;;4961663;28;20517;-81
2023/11/02 12:58:58;;;;;;;1.53;1.00;;;17.00;89.40;;;;;;4976158;28;20457;-78
2023/11/02 13:01:52;;;;;;;1.60;1.10;;;17.00;89.20;;;;;;4963382;28;20519;-79
2023/11/02 13:04:20;;;;;;;1.50;0.93;;;16.90;89.60;;;;;;4971190;28;20528;-78
2023/11/02 13:06:49;;;;;;;1.60;1.00;;;16.90;89.50;;;;;;4965564;28;20478;-79
2023/11/02 13:09:18;;;;;;;1.50;1.00;;;17.00;89.80;;;;;;4972019;28;20561;-78
2023/11/02 13:11:47;;;;;;;1.50;0.90;;;17.00;89.40;;;;;;4954165;28;20493;-78
2023/11/02 13:14:16;;;;;;;1.53;1.00;;;16.90;88.30;;;;;;4968972;28;20468;-80